sensor_id;sensor_type;location;lat;lon;timestamp;P1;durP1;ratioP1;P2;durP2;ratioP2
64037;SDS011;54641;50.168;8.492;2023-04-25T00:02:24;8.50;;;5.30;;
64037;SDS011;54641;50.168;8.492;2023-04-25T00:04:57;9.30;;;5.90;;
64037;SDS011;54641;50.168;8.492;2023-04-25T00:07:30;10.00;;;6.20;;
64037;SDS011;54641;50.168;8.492;2023-04-25T00:10:00;9.60;;;5.60;;
64037;SDS011;54641;50.168;8.492;2023-04-25T00:12:31;8.70;;;5.70;;
64037;SDS011;54641;50.168;8.492;2023-04-25T00:15:01;12.80;;;6.10;;
64037;SDS011;54641;50.168;8.492;2023-04-25T00:17:33;10.90;;;6.10;;
64037;SDS011;54641;50.168;8.492;2023-04-25T00:20:03;9.80;;;5.80;;
64037;SDS011;54641;50.168;8.492;2023-04-25T00:22:36;9.50;;;5.80;;
64037;SDS011;54641;50.168;8.492;2023-04-25T00:25:07;9.30;;;5.80;;
64037;SDS011;54641;50.168;8.492;2023-04-25T00:27:37;10.40;;;7.40;;
64037;SDS011;54641;50.168;8.492;2023-04-25T00:30:10;9.10;;;5.70;;
64037;SDS011;54641;50.168;8.492;2023-04-25T00:32:41;12.20;;;6.50;;
64037;SDS011;54641;50.168;8.492;2023-04-25T00:35:12;9.40;;;6.20;;
64037;SDS011;54641;50.168;8.492;2023-04-25T00:37:42;10.80;;;6.80;;
64037;SDS011;54641;50.168;8.492;2023-04-25T00:40:13;10.40;;;6.40;;
64037;SDS011;54641;50.168;8.492;2023-04-25T00:42:43;10.00;;;6.30;;
64037;SDS011;54641;50.168;8.492;2023-04-25T00:45:15;11.90;;;7.70;;
64037;SDS011;54641;50.168;8.492;2023-04-25T00:47:45;10.10;;;5.80;;
64037;SDS011;54641;50.168;8.492;2023-04-25T00:50:16;7.70;;;5.50;;
64037;SDS011;54641;50.168;8.492;2023-04-25T00:52:46;7.70;;;5.00;;
64037;SDS011;54641;50.168;8.492;2023-04-25T00:55:17;9.00;;;5.00;;
64037;SDS011;54641;50.168;8.492;2023-04-25T00:57:48;8.70;;;5.50;;
64037;SDS011;54641;50.168;8.492;2023-04-25T01:00:20;10.60;;;5.90;;
64037;SDS011;54641;50.168;8.492;2023-04-25T01:02:50;9.60;;;5.70;;
64037;SDS011;54641;50.168;8.492;2023-04-25T01:05:21;7.30;;;4.90;;
64037;SDS011;54641;50.168;8.492;2023-04-25T01:07:52;8.60;;;5.10;;
64037;SDS011;54641;50.168;8.492;2023-04-25T01:10:22;9.90;;;5.60;;
64037;SDS011;54641;50.168;8.492;2023-04-25T01:12:53;9.50;;;5.90;;
64037;SDS011;54641;50.168;8.492;2023-04-25T01:15:23;13.90;;;7.70;;
64037;SDS011;54641;50.168;8.492;2023-04-25T01:17:53;10.80;;;6.20;;
64037;SDS011;54641;50.168;8.492;2023-04-25T01:20:24;10.50;;;6.00;;
64037;SDS011;54641;50.168;8.492;2023-04-25T01:22:56;11.20;;;7.00;;
64037;SDS011;54641;50.168;8.492;2023-04-25T01:25:27;9.80;;;6.50;;
64037;SDS011;54641;50.168;8.492;2023-04-25T01:27:58;12.20;;;6.40;;
64037;SDS011;54641;50.168;8.492;2023-04-25T01:30:28;11.00;;;7.10;;
64037;SDS011;54641;50.168;8.492;2023-04-25T01:32:59;10.40;;;6.90;;
64037;SDS011;54641;50.168;8.492;2023-04-25T01:35:30;12.50;;;6.90;;
64037;SDS011;54641;50.168;8.492;2023-04-25T01:38:00;13.70;;;6.80;;
64037;SDS011;54641;50.168;8.492;2023-04-25T01:40:33;13.80;;;7.90;;
64037;SDS011;54641;50.168;8.492;2023-04-25T01:43:04;13.60;;;7.70;;
64037;SDS011;54641;50.168;8.492;2023-04-25T01:45:36;12.90;;;7.60;;
64037;SDS011;54641;50.168;8.492;2023-04-25T01:48:10;14.10;;;8.40;;
64037;SDS011;54641;50.168;8.492;2023-04-25T01:50:43;13.50;;;8.00;;
64037;SDS011;54641;50.168;8.492;2023-04-25T01:53:14;13.50;;;7.70;;
64037;SDS011;54641;50.168;8.492;2023-04-25T01:55:45;16.00;;;8.60;;
64037;SDS011;54641;50.168;8.492;2023-04-25T01:58:18;12.00;;;7.50;;
64037;SDS011;54641;50.168;8.492;2023-04-25T02:01:06;12.20;;;7.50;;
64037;SDS011;54641;50.168;8.492;2023-04-25T02:03:40;12.40;;;8.00;;
64037;SDS011;54641;50.168;8.492;2023-04-25T02:06:18;12.80;;;7.20;;
64037;SDS011;54641;50.168;8.492;2023-04-25T02:08:49;14.20;;;8.20;;
64037;SDS011;54641;50.168;8.492;2023-04-25T02:11:20;12.10;;;7.70;;
64037;SDS011;54641;50.168;8.492;2023-04-25T02:14:08;11.30;;;7.20;;
64037;SDS011;54641;50.168;8.492;2023-04-25T02:16:44;14.70;;;8.00;;
64037;SDS011;54641;50.168;8.492;2023-04-25T02:19:15;15.10;;;8.10;;
64037;SDS011;54641;50.168;8.492;2023-04-25T02:21:47;13.50;;;8.20;;
64037;SDS011;54641;50.168;8.492;2023-04-25T02:24:18;15.10;;;8.50;;
64037;SDS011;54641;50.168;8.492;2023-04-25T02:26:48;15.20;;;8.50;;
64037;SDS011;54641;50.168;8.492;2023-04-25T02:29:19;12.50;;;8.30;;
64037;SDS011;54641;50.168;8.492;2023-04-25T02:31:49;14.10;;;8.70;;
64037;SDS011;54641;50.168;8.492;2023-04-25T02:34:20;13.20;;;8.10;;
64037;SDS011;54641;50.168;8.492;2023-04-25T02:36:51;12.10;;;8.40;;
64037;SDS011;54641;50.168;8.492;2023-04-25T02:39:21;12.70;;;8.50;;
64037;SDS011;54641;50.168;8.492;2023-04-25T02:41:52;11.40;;;7.70;;
64037;SDS011;54641;50.168;8.492;2023-04-25T02:44:23;17.40;;;9.40;;
64037;SDS011;54641;50.168;8.492;2023-04-25T02:46:53;17.00;;;10.30;;
64037;SDS011;54641;50.168;8.492;2023-04-25T02:49:24;16.60;;;8.50;;
64037;SDS011;54641;50.168;8.492;2023-04-25T02:51:54;15.70;;;9.10;;
64037;SDS011;54641;50.168;8.492;2023-04-25T02:54:24;15.00;;;9.00;;
64037;SDS011;54641;50.168;8.492;2023-04-25T02:56:55;14.70;;;8.70;;
64037;SDS011;54641;50.168;8.492;2023-04-25T02:59:27;15.50;;;8.40;;
64037;SDS011;54641;50.168;8.492;2023-04-25T03:01:58;16.40;;;9.80;;
64037;SDS011;54641;50.168;8.492;2023-04-25T03:04:28;15.00;;;8.60;;
64037;SDS011;54641;50.168;8.492;2023-04-25T03:06:59;14.10;;;9.20;;
64037;SDS011;54641;50.168;8.492;2023-04-25T03:09:30;17.90;;;8.90;;
64037;SDS011;54641;50.168;8.492;2023-04-25T03:12:00;15.10;;;7.70;;
64037;SDS011;54641;50.168;8.492;2023-04-25T03:14:32;13.90;;;8.30;;
64037;SDS011;54641;50.168;8.492;2023-04-25T03:17:04;17.70;;;8.60;;
64037;SDS011;54641;50.168;8.492;2023-04-25T03:19:35;12.20;;;6.90;;
64037;SDS011;54641;50.168;8.492;2023-04-25T03:22:05;13.00;;;6.20;;
64037;SDS011;54641;50.168;8.492;2023-04-25T03:24:36;15.90;;;6.90;;
64037;SDS011;54641;50.168;8.492;2023-04-25T03:27:06;13.40;;;7.80;;
64037;SDS011;54641;50.168;8.492;2023-04-25T03:29:37;15.50;;;7.80;;
64037;SDS011;54641;50.168;8.492;2023-04-25T03:32:09;15.40;;;7.80;;
64037;SDS011;54641;50.168;8.492;2023-04-25T03:34:40;14.70;;;8.50;;
64037;SDS011;54641;50.168;8.492;2023-04-25T03:37:10;15.30;;;7.90;;
64037;SDS011;54641;50.168;8.492;2023-04-25T03:39:40;17.50;;;8.40;;
64037;SDS011;54641;50.168;8.492;2023-04-25T03:42:11;14.30;;;8.40;;
64037;SDS011;54641;50.168;8.492;2023-04-25T03:44:43;15.10;;;7.70;;
64037;SDS011;54641;50.168;8.492;2023-04-25T03:47:14;13.20;;;6.70;;
64037;SDS011;54641;50.168;8.492;2023-04-25T03:49:44;16.00;;;8.20;;
64037;SDS011;54641;50.168;8.492;2023-04-25T03:52:17;20.70;;;9.30;;
64037;SDS011;54641;50.168;8.492;2023-04-25T03:54:47;15.30;;;9.00;;
64037;SDS011;54641;50.168;8.492;2023-04-25T03:57:20;17.50;;;7.90;;
64037;SDS011;54641;50.168;8.492;2023-04-25T03:59:50;15.50;;;7.40;;
64037;SDS011;54641;50.168;8.492;2023-04-25T04:02:21;19.00;;;9.80;;
64037;SDS011;54641;50.168;8.492;2023-04-25T04:04:53;18.90;;;9.20;;
64037;SDS011;54641;50.168;8.492;2023-04-25T04:07:24;16.90;;;8.00;;
64037;SDS011;54641;50.168;8.492;2023-04-25T04:09:57;16.80;;;8.10;;
64037;SDS011;54641;50.168;8.492;2023-04-25T04:12:33;18.10;;;8.10;;
64037;SDS011;54641;50.168;8.492;2023-04-25T04:15:04;18.50;;;8.20;;
64037;SDS011;54641;50.168;8.492;2023-04-25T04:17:36;15.20;;;7.60;;
64037;SDS011;54641;50.168;8.492;2023-04-25T04:20:09;17.90;;;8.20;;
64037;SDS011;54641;50.168;8.492;2023-04-25T04:22:40;14.00;;;7.40;;
64037;SDS011;54641;50.168;8.492;2023-04-25T04:28:03;22.60;;;9.30;;
64037;SDS011;54641;50.168;8.492;2023-04-25T04:30:48;18.00;;;7.70;;
64037;SDS011;54641;50.168;8.492;2023-04-25T04:33:20;15.30;;;7.40;;
64037;SDS011;54641;50.168;8.492;2023-04-25T04:35:56;14.60;;;7.70;;
64037;SDS011;54641;50.168;8.492;2023-04-25T04:38:28;14.60;;;7.40;;
64037;SDS011;54641;50.168;8.492;2023-04-25T04:41:02;15.10;;;8.20;;
64037;SDS011;54641;50.168;8.492;2023-04-25T04:43:53;17.30;;;7.60;;
64037;SDS011;54641;50.168;8.492;2023-04-25T04:46:37;15.50;;;7.00;;
64037;SDS011;54641;50.168;8.492;2023-04-25T04:49:33;20.50;;;9.00;;
64037;SDS011;54641;50.168;8.492;2023-04-25T04:52:39;15.20;;;8.40;;
64037;SDS011;54641;50.168;8.492;2023-04-25T04:55:40;15.10;;;7.20;;
64037;SDS011;54641;50.168;8.492;2023-04-25T04:58:48;16.30;;;6.60;;
64037;SDS011;54641;50.168;8.492;2023-04-25T05:01:36;16.40;;;7.20;;
64037;SDS011;54641;50.168;8.492;2023-04-25T05:04:36;17.20;;;7.20;;
64037;SDS011;54641;50.168;8.492;2023-04-25T05:07:25;12.50;;;6.80;;
64037;SDS011;54641;50.168;8.492;2023-04-25T05:10:06;11.00;;;5.80;;
64037;SDS011;54641;50.168;8.492;2023-04-25T05:13:01;14.90;;;6.60;;
64037;SDS011;54641;50.168;8.492;2023-04-25T05:16:00;12.70;;;5.80;;
64037;SDS011;54641;50.168;8.492;2023-04-25T05:18:40;9.80;;;5.90;;
64037;SDS011;54641;50.168;8.492;2023-04-25T05:21:29;10.30;;;5.10;;
64037;SDS011;54641;50.168;8.492;2023-04-25T05:24:09;10.90;;;4.60;;
64037;SDS011;54641;50.168;8.492;2023-04-25T05:26:58;10.50;;;6.20;;
64037;SDS011;54641;50.168;8.492;2023-04-25T05:30:09;12.10;;;5.70;;
64037;SDS011;54641;50.168;8.492;2023-04-25T05:33:02;9.50;;;4.90;;
64037;SDS011;54641;50.168;8.492;2023-04-25T05:35:33;9.10;;;4.90;;
64037;SDS011;54641;50.168;8.492;2023-04-25T05:38:03;8.20;;;5.10;;
64037;SDS011;54641;50.168;8.492;2023-04-25T05:40:52;7.10;;;4.60;;
64037;SDS011;54641;50.168;8.492;2023-04-25T05:43:41;8.60;;;4.00;;
64037;SDS011;54641;50.168;8.492;2023-04-25T05:46:35;9.40;;;4.10;;
64037;SDS011;54641;50.168;8.492;2023-04-25T05:49:13;11.10;;;4.50;;
64037;SDS011;54641;50.168;8.492;2023-04-25T05:52:01;8.60;;;4.90;;
64037;SDS011;54641;50.168;8.492;2023-04-25T05:54:46;9.70;;;4.20;;
64037;SDS011;54641;50.168;8.492;2023-04-25T05:57:21;9.30;;;4.80;;
64037;SDS011;54641;50.168;8.492;2023-04-25T05:59:53;7.10;;;4.20;;
64037;SDS011;54641;50.168;8.492;2023-04-25T06:02:40;9.60;;;4.30;;
64037;SDS011;54641;50.168;8.492;2023-04-25T06:05:13;7.10;;;3.70;;
64037;SDS011;54641;50.168;8.492;2023-04-25T06:07:45;7.50;;;3.40;;
64037;SDS011;54641;50.168;8.492;2023-04-25T06:10:15;8.00;;;3.40;;
64037;SDS011;54641;50.168;8.492;2023-04-25T06:12:46;8.70;;;3.20;;
64037;SDS011;54641;50.168;8.492;2023-04-25T06:15:16;8.60;;;3.90;;
64037;SDS011;54641;50.168;8.492;2023-04-25T06:17:49;11.40;;;3.70;;
64037;SDS011;54641;50.168;8.492;2023-04-25T06:20:20;7.40;;;4.00;;
64037;SDS011;54641;50.168;8.492;2023-04-25T06:22:51;10.30;;;3.70;;
64037;SDS011;54641;50.168;8.492;2023-04-25T06:25:28;5.00;;;3.00;;
64037;SDS011;54641;50.168;8.492;2023-04-25T06:27:59;7.20;;;3.20;;
64037;SDS011;54641;50.168;8.492;2023-04-25T06:30:29;6.90;;;3.30;;
64037;SDS011;54641;50.168;8.492;2023-04-25T06:33:04;5.10;;;3.10;;
64037;SDS011;54641;50.168;8.492;2023-04-25T06:35:36;9.10;;;4.00;;
64037;SDS011;54641;50.168;8.492;2023-04-25T06:38:07;6.00;;;3.20;;
64037;SDS011;54641;50.168;8.492;2023-04-25T06:40:38;7.30;;;3.40;;
64037;SDS011;54641;50.168;8.492;2023-04-25T06:43:09;6.90;;;3.20;;
64037;SDS011;54641;50.168;8.492;2023-04-25T06:45:53;10.10;;;3.50;;
64037;SDS011;54641;50.168;8.492;2023-04-25T06:48:26;9.00;;;3.90;;
64037;SDS011;54641;50.168;8.492;2023-04-25T06:50:58;8.60;;;3.40;;
64037;SDS011;54641;50.168;8.492;2023-04-25T06:53:29;7.80;;;3.90;;
64037;SDS011;54641;50.168;8.492;2023-04-25T06:56:01;7.50;;;4.10;;
64037;SDS011;54641;50.168;8.492;2023-04-25T06:58:42;7.70;;;3.40;;
64037;SDS011;54641;50.168;8.492;2023-04-25T07:01:24;8.30;;;3.70;;
64037;SDS011;54641;50.168;8.492;2023-04-25T07:03:55;8.50;;;4.00;;
64037;SDS011;54641;50.168;8.492;2023-04-25T07:06:25;8.60;;;4.30;;
64037;SDS011;54641;50.168;8.492;2023-04-25T07:08:56;5.00;;;3.30;;
64037;SDS011;54641;50.168;8.492;2023-04-25T07:11:27;10.20;;;3.70;;
64037;SDS011;54641;50.168;8.492;2023-04-25T07:13:57;6.10;;;3.20;;
64037;SDS011;54641;50.168;8.492;2023-04-25T07:16:27;4.40;;;3.10;;
64037;SDS011;54641;50.168;8.492;2023-04-25T07:18:58;6.50;;;3.50;;
64037;SDS011;54641;50.168;8.492;2023-04-25T07:21:29;7.40;;;4.00;;
64037;SDS011;54641;50.168;8.492;2023-04-25T07:24:01;6.00;;;3.10;;
64037;SDS011;54641;50.168;8.492;2023-04-25T07:26:34;6.70;;;3.90;;
64037;SDS011;54641;50.168;8.492;2023-04-25T07:29:16;9.90;;;3.20;;
64037;SDS011;54641;50.168;8.492;2023-04-25T07:31:46;7.50;;;3.20;;
64037;SDS011;54641;50.168;8.492;2023-04-25T07:34:17;6.50;;;3.60;;
64037;SDS011;54641;50.168;8.492;2023-04-25T07:36:47;4.80;;;2.90;;
64037;SDS011;54641;50.168;8.492;2023-04-25T07:39:18;6.80;;;3.10;;
64037;SDS011;54641;50.168;8.492;2023-04-25T07:41:51;14.50;;;4.90;;
64037;SDS011;54641;50.168;8.492;2023-04-25T07:44:24;7.50;;;3.50;;
64037;SDS011;54641;50.168;8.492;2023-04-25T07:46:55;5.60;;;2.70;;
64037;SDS011;54641;50.168;8.492;2023-04-25T07:49:25;6.80;;;3.20;;
64037;SDS011;54641;50.168;8.492;2023-04-25T07:51:56;5.80;;;3.10;;
64037;SDS011;54641;50.168;8.492;2023-04-25T07:54:27;6.40;;;3.70;;
64037;SDS011;54641;50.168;8.492;2023-04-25T07:57:01;7.60;;;3.10;;
64037;SDS011;54641;50.168;8.492;2023-04-25T07:59:34;9.60;;;3.70;;
64037;SDS011;54641;50.168;8.492;2023-04-25T08:02:04;7.40;;;4.90;;
64037;SDS011;54641;50.168;8.492;2023-04-25T08:04:35;9.00;;;3.40;;
64037;SDS011;54641;50.168;8.492;2023-04-25T08:07:09;6.70;;;3.30;;
64037;SDS011;54641;50.168;8.492;2023-04-25T08:09:46;6.60;;;3.50;;
64037;SDS011;54641;50.168;8.492;2023-04-25T08:12:23;7.60;;;4.00;;
64037;SDS011;54641;50.168;8.492;2023-04-25T08:14:54;8.40;;;3.60;;
64037;SDS011;54641;50.168;8.492;2023-04-25T08:17:24;6.00;;;3.50;;
64037;SDS011;54641;50.168;8.492;2023-04-25T08:19:55;7.70;;;3.80;;
64037;SDS011;54641;50.168;8.492;2023-04-25T08:22:29;8.90;;;4.30;;
64037;SDS011;54641;50.168;8.492;2023-04-25T08:25:20;7.60;;;4.10;;
64037;SDS011;54641;50.168;8.492;2023-04-25T08:27:50;9.60;;;4.60;;
64037;SDS011;54641;50.168;8.492;2023-04-25T08:30:21;7.30;;;4.20;;
64037;SDS011;54641;50.168;8.492;2023-04-25T08:32:52;8.60;;;4.90;;
64037;SDS011;54641;50.168;8.492;2023-04-25T08:35:45;8.40;;;5.30;;
64037;SDS011;54641;50.168;8.492;2023-04-25T08:38:16;8.80;;;5.30;;
64037;SDS011;54641;50.168;8.492;2023-04-25T08:40:48;9.70;;;4.90;;
64037;SDS011;54641;50.168;8.492;2023-04-25T08:43:20;8.60;;;5.00;;
64037;SDS011;54641;50.168;8.492;2023-04-25T08:45:51;7.80;;;4.60;;
64037;SDS011;54641;50.168;8.492;2023-04-25T08:48:43;6.90;;;4.50;;
64037;SDS011;54641;50.168;8.492;2023-04-25T08:51:20;7.50;;;4.40;;
64037;SDS011;54641;50.168;8.492;2023-04-25T08:53:52;6.10;;;4.30;;
64037;SDS011;54641;50.168;8.492;2023-04-25T08:56:28;6.10;;;4.20;;
64037;SDS011;54641;50.168;8.492;2023-04-25T08:59:02;7.10;;;4.30;;
64037;SDS011;54641;50.168;8.492;2023-04-25T09:01:36;6.30;;;4.10;;
64037;SDS011;54641;50.168;8.492;2023-04-25T09:04:06;8.50;;;4.70;;
64037;SDS011;54641;50.168;8.492;2023-04-25T09:06:37;8.10;;;4.30;;
64037;SDS011;54641;50.168;8.492;2023-04-25T09:09:08;8.60;;;4.70;;
64037;SDS011;54641;50.168;8.492;2023-04-25T09:11:39;7.20;;;4.50;;
64037;SDS011;54641;50.168;8.492;2023-04-25T09:14:11;8.50;;;4.40;;
64037;SDS011;54641;50.168;8.492;2023-04-25T09:17:03;9.40;;;5.50;;
64037;SDS011;54641;50.168;8.492;2023-04-25T09:19:47;7.00;;;4.50;;
64037;SDS011;54641;50.168;8.492;2023-04-25T09:22:25;6.70;;;4.20;;
64037;SDS011;54641;50.168;8.492;2023-04-25T09:24:55;5.50;;;3.90;;
64037;SDS011;54641;50.168;8.492;2023-04-25T09:27:27;6.10;;;4.60;;
64037;SDS011;54641;50.168;8.492;2023-04-25T09:30:10;6.90;;;4.00;;
64037;SDS011;54641;50.168;8.492;2023-04-25T09:32:57;6.40;;;3.60;;
64037;SDS011;54641;50.168;8.492;2023-04-25T09:35:37;7.30;;;4.40;;
64037;SDS011;54641;50.168;8.492;2023-04-25T09:38:09;5.10;;;3.50;;
64037;SDS011;54641;50.168;8.492;2023-04-25T09:40:59;8.10;;;4.60;;
64037;SDS011;54641;50.168;8.492;2023-04-25T09:43:39;67.00;;;26.20;;
64037;SDS011;54641;50.168;8.492;2023-04-25T09:46:09;11.10;;;5.90;;
64037;SDS011;54641;50.168;8.492;2023-04-25T09:48:43;7.20;;;4.70;;
64037;SDS011;54641;50.168;8.492;2023-04-25T09:51:24;10.30;;;4.90;;
64037;SDS011;54641;50.168;8.492;2023-04-25T09:53:57;9.60;;;5.10;;
64037;SDS011;54641;50.168;8.492;2023-04-25T09:56:37;8.90;;;4.80;;
64037;SDS011;54641;50.168;8.492;2023-04-25T09:59:08;8.30;;;5.20;;
64037;SDS011;54641;50.168;8.492;2023-04-25T10:01:39;8.00;;;5.10;;
64037;SDS011;54641;50.168;8.492;2023-04-25T10:04:13;7.30;;;4.30;;
64037;SDS011;54641;50.168;8.492;2023-04-25T10:07:07;8.40;;;4.40;;
64037;SDS011;54641;50.168;8.492;2023-04-25T10:09:37;6.20;;;4.30;;
64037;SDS011;54641;50.168;8.492;2023-04-25T10:12:08;8.40;;;4.60;;
64037;SDS011;54641;50.168;8.492;2023-04-25T10:14:39;6.60;;;4.30;;
64037;SDS011;54641;50.168;8.492;2023-04-25T10:17:10;7.80;;;4.20;;
64037;SDS011;54641;50.168;8.492;2023-04-25T10:19:40;8.00;;;4.10;;
64037;SDS011;54641;50.168;8.492;2023-04-25T10:22:13;7.00;;;4.40;;
64037;SDS011;54641;50.168;8.492;2023-04-25T10:24:46;8.80;;;4.50;;
64037;SDS011;54641;50.168;8.492;2023-04-25T10:27:17;7.10;;;4.30;;
64037;SDS011;54641;50.168;8.492;2023-04-25T10:29:47;8.90;;;4.50;;
64037;SDS011;54641;50.168;8.492;2023-04-25T10:32:32;8.20;;;4.50;;
64037;SDS011;54641;50.168;8.492;2023-04-25T10:35:12;6.70;;;4.40;;
64037;SDS011;54641;50.168;8.492;2023-04-25T10:40:28;6.60;;;4.20;;
64037;SDS011;54641;50.168;8.492;2023-04-25T10:45:57;11.30;;;4.60;;
64037;SDS011;54641;50.168;8.492;2023-04-25T10:48:30;7.00;;;4.20;;
64037;SDS011;54641;50.168;8.492;2023-04-25T10:51:09;8.30;;;4.50;;
64037;SDS011;54641;50.168;8.492;2023-04-25T10:53:40;8.60;;;4.60;;
64037;SDS011;54641;50.168;8.492;2023-04-25T10:56:11;8.60;;;4.40;;
64037;SDS011;54641;50.168;8.492;2023-04-25T10:58:45;9.80;;;4.30;;
64037;SDS011;54641;50.168;8.492;2023-04-25T11:01:21;7.70;;;4.70;;
64037;SDS011;54641;50.168;8.492;2023-04-25T11:03:58;6.50;;;4.40;;
64037;SDS011;54641;50.168;8.492;2023-04-25T11:06:29;10.10;;;4.40;;
64037;SDS011;54641;50.168;8.492;2023-04-25T11:09:08;7.10;;;3.80;;
64037;SDS011;54641;50.168;8.492;2023-04-25T11:11:41;7.80;;;3.90;;
64037;SDS011;54641;50.168;8.492;2023-04-25T11:14:11;6.00;;;3.50;;
64037;SDS011;54641;50.168;8.492;2023-04-25T11:16:41;5.50;;;3.70;;
64037;SDS011;54641;50.168;8.492;2023-04-25T11:19:12;5.60;;;3.30;;
64037;SDS011;54641;50.168;8.492;2023-04-25T11:21:42;10.10;;;3.80;;
64037;SDS011;54641;50.168;8.492;2023-04-25T11:24:12;7.60;;;3.50;;
64037;SDS011;54641;50.168;8.492;2023-04-25T11:26:44;12.20;;;4.10;;
64037;SDS011;54641;50.168;8.492;2023-04-25T11:29:17;9.20;;;4.00;;
64037;SDS011;54641;50.168;8.492;2023-04-25T11:31:48;7.10;;;4.00;;
64037;SDS011;54641;50.168;8.492;2023-04-25T11:34:18;5.40;;;3.60;;
64037;SDS011;54641;50.168;8.492;2023-04-25T11:36:49;8.10;;;4.10;;
64037;SDS011;54641;50.168;8.492;2023-04-25T11:39:20;9.00;;;4.00;;
64037;SDS011;54641;50.168;8.492;2023-04-25T11:41:52;7.00;;;4.00;;
64037;SDS011;54641;50.168;8.492;2023-04-25T11:44:23;8.50;;;4.20;;
64037;SDS011;54641;50.168;8.492;2023-04-25T11:46:53;7.50;;;3.90;;
64037;SDS011;54641;50.168;8.492;2023-04-25T11:49:25;9.30;;;4.40;;
64037;SDS011;54641;50.168;8.492;2023-04-25T11:52:00;7.80;;;3.80;;
64037;SDS011;54641;50.168;8.492;2023-04-25T11:54:30;6.40;;;3.70;;
64037;SDS011;54641;50.168;8.492;2023-04-25T11:57:01;8.20;;;4.50;;
64037;SDS011;54641;50.168;8.492;2023-04-25T11:59:31;11.30;;;4.70;;
64037;SDS011;54641;50.168;8.492;2023-04-25T12:02:02;9.40;;;4.10;;
64037;SDS011;54641;50.168;8.492;2023-04-25T12:04:34;7.40;;;4.10;;
64037;SDS011;54641;50.168;8.492;2023-04-25T12:07:09;9.10;;;4.00;;
64037;SDS011;54641;50.168;8.492;2023-04-25T12:09:39;10.10;;;4.40;;
64037;SDS011;54641;50.168;8.492;2023-04-25T12:12:10;7.90;;;3.90;;
64037;SDS011;54641;50.168;8.492;2023-04-25T12:14:40;11.50;;;4.30;;
64037;SDS011;54641;50.168;8.492;2023-04-25T12:17:16;7.60;;;4.10;;
64037;SDS011;54641;50.168;8.492;2023-04-25T12:19:47;9.50;;;4.80;;
64037;SDS011;54641;50.168;8.492;2023-04-25T12:22:21;8.60;;;4.00;;
64037;SDS011;54641;50.168;8.492;2023-04-25T12:24:52;7.90;;;3.90;;
64037;SDS011;54641;50.168;8.492;2023-04-25T12:27:25;6.70;;;4.00;;
64037;SDS011;54641;50.168;8.492;2023-04-25T12:29:57;8.10;;;4.00;;
64037;SDS011;54641;50.168;8.492;2023-04-25T12:32:28;7.50;;;4.10;;
64037;SDS011;54641;50.168;8.492;2023-04-25T12:34:58;7.60;;;3.40;;
64037;SDS011;54641;50.168;8.492;2023-04-25T12:40:01;7.30;;;3.60;;
64037;SDS011;54641;50.168;8.492;2023-04-25T12:42:32;8.50;;;4.20;;
64037;SDS011;54641;50.168;8.492;2023-04-25T12:45:03;7.80;;;3.60;;
64037;SDS011;54641;50.168;8.492;2023-04-25T12:47:35;6.50;;;3.80;;
64037;SDS011;54641;50.168;8.492;2023-04-25T12:50:06;7.10;;;4.50;;
64037;SDS011;54641;50.168;8.492;2023-04-25T12:52:37;9.20;;;4.60;;
64037;SDS011;54641;50.168;8.492;2023-04-25T12:55:08;7.70;;;4.00;;
64037;SDS011;54641;50.168;8.492;2023-04-25T12:57:38;7.90;;;4.20;;
64037;SDS011;54641;50.168;8.492;2023-04-25T13:00:11;8.60;;;4.50;;
64037;SDS011;54641;50.168;8.492;2023-04-25T13:05:11;7.80;;;4.30;;
64037;SDS011;54641;50.168;8.492;2023-04-25T13:07:42;9.60;;;4.80;;
64037;SDS011;54641;50.168;8.492;2023-04-25T13:10:12;7.30;;;4.90;;
64037;SDS011;54641;50.168;8.492;2023-04-25T13:12:43;9.50;;;4.90;;
64037;SDS011;54641;50.168;8.492;2023-04-25T13:15:14;7.40;;;5.00;;
64037;SDS011;54641;50.168;8.492;2023-04-25T13:17:45;7.60;;;4.40;;
64037;SDS011;54641;50.168;8.492;2023-04-25T13:20:15;8.40;;;4.80;;
64037;SDS011;54641;50.168;8.492;2023-04-25T13:22:50;9.00;;;4.20;;
64037;SDS011;54641;50.168;8.492;2023-04-25T13:25:20;9.80;;;5.10;;
64037;SDS011;54641;50.168;8.492;2023-04-25T13:27:51;9.60;;;4.60;;
64037;SDS011;54641;50.168;8.492;2023-04-25T13:30:22;10.00;;;5.10;;
64037;SDS011;54641;50.168;8.492;2023-04-25T13:32:53;9.90;;;5.30;;
64037;SDS011;54641;50.168;8.492;2023-04-25T13:35:25;7.10;;;4.10;;
64037;SDS011;54641;50.168;8.492;2023-04-25T13:37:55;6.20;;;3.70;;
64037;SDS011;54641;50.168;8.492;2023-04-25T13:40:26;7.10;;;4.00;;
64037;SDS011;54641;50.168;8.492;2023-04-25T13:42:57;7.90;;;3.90;;
64037;SDS011;54641;50.168;8.492;2023-04-25T13:45:27;6.40;;;3.10;;
64037;SDS011;54641;50.168;8.492;2023-04-25T13:48:00;8.00;;;3.60;;
64037;SDS011;54641;50.168;8.492;2023-04-25T13:50:31;7.20;;;3.90;;
64037;SDS011;54641;50.168;8.492;2023-04-25T13:53:02;8.60;;;3.40;;
64037;SDS011;54641;50.168;8.492;2023-04-25T13:55:33;9.80;;;3.20;;
64037;SDS011;54641;50.168;8.492;2023-04-25T13:58:04;6.60;;;3.00;;
64037;SDS011;54641;50.168;8.492;2023-04-25T14:00:38;5.40;;;2.90;;
64037;SDS011;54641;50.168;8.492;2023-04-25T14:03:11;4.60;;;2.60;;
64037;SDS011;54641;50.168;8.492;2023-04-25T14:05:41;6.00;;;2.90;;
64037;SDS011;54641;50.168;8.492;2023-04-25T14:08:12;5.60;;;2.50;;
64037;SDS011;54641;50.168;8.492;2023-04-25T14:10:43;6.70;;;2.80;;
64037;SDS011;54641;50.168;8.492;2023-04-25T14:13:13;6.50;;;3.60;;
64037;SDS011;54641;50.168;8.492;2023-04-25T14:15:44;8.00;;;3.30;;
64037;SDS011;54641;50.168;8.492;2023-04-25T14:18:14;6.80;;;3.10;;
64037;SDS011;54641;50.168;8.492;2023-04-25T14:20:45;8.20;;;3.00;;
64037;SDS011;54641;50.168;8.492;2023-04-25T14:23:15;5.80;;;3.20;;
64037;SDS011;54641;50.168;8.492;2023-04-25T14:25:46;6.50;;;2.90;;
64037;SDS011;54641;50.168;8.492;2023-04-25T14:28:16;4.80;;;2.90;;
64037;SDS011;54641;50.168;8.492;2023-04-25T14:30:50;7.00;;;3.40;;
64037;SDS011;54641;50.168;8.492;2023-04-25T14:33:21;6.30;;;3.00;;
64037;SDS011;54641;50.168;8.492;2023-04-25T14:35:52;9.00;;;2.90;;
64037;SDS011;54641;50.168;8.492;2023-04-25T14:38:23;6.90;;;3.10;;
64037;SDS011;54641;50.168;8.492;2023-04-25T14:40:55;10.00;;;3.50;;
64037;SDS011;54641;50.168;8.492;2023-04-25T14:43:26;7.10;;;4.10;;
64037;SDS011;54641;50.168;8.492;2023-04-25T14:45:57;4.60;;;3.00;;
64037;SDS011;54641;50.168;8.492;2023-04-25T14:48:28;11.80;;;3.50;;
64037;SDS011;54641;50.168;8.492;2023-04-25T14:50:59;5.80;;;3.10;;
64037;SDS011;54641;50.168;8.492;2023-04-25T14:53:30;6.10;;;3.60;;
64037;SDS011;54641;50.168;8.492;2023-04-25T14:56:00;6.10;;;3.60;;
64037;SDS011;54641;50.168;8.492;2023-04-25T14:58:32;8.00;;;3.30;;
64037;SDS011;54641;50.168;8.492;2023-04-25T15:01:03;7.30;;;2.70;;
64037;SDS011;54641;50.168;8.492;2023-04-25T15:03:34;5.80;;;2.90;;
64037;SDS011;54641;50.168;8.492;2023-04-25T15:06:05;5.80;;;3.20;;
64037;SDS011;54641;50.168;8.492;2023-04-25T15:08:36;6.00;;;2.90;;
64037;SDS011;54641;50.168;8.492;2023-04-25T15:11:06;5.70;;;2.80;;
64037;SDS011;54641;50.168;8.492;2023-04-25T15:16:25;5.30;;;3.10;;
64037;SDS011;54641;50.168;8.492;2023-04-25T15:18:56;8.20;;;3.10;;
64037;SDS011;54641;50.168;8.492;2023-04-25T15:21:27;7.70;;;2.90;;
64037;SDS011;54641;50.168;8.492;2023-04-25T15:23:57;5.90;;;3.20;;
64037;SDS011;54641;50.168;8.492;2023-04-25T15:26:28;6.80;;;3.20;;
64037;SDS011;54641;50.168;8.492;2023-04-25T15:28:58;5.50;;;3.10;;
64037;SDS011;54641;50.168;8.492;2023-04-25T15:31:33;7.90;;;2.90;;
64037;SDS011;54641;50.168;8.492;2023-04-25T15:34:04;7.20;;;2.80;;
64037;SDS011;54641;50.168;8.492;2023-04-25T15:36:35;6.70;;;2.80;;
64037;SDS011;54641;50.168;8.492;2023-04-25T15:39:05;5.40;;;3.10;;